sensor_id;sensor_type;location;lat;lon;timestamp;P1;durP1;ratioP1;P2;durP2;ratioP2
74963;SDS011;63521;51.900;4.748;2023-06-24T00:00:44;1.75;;;1.60;;
74963;SDS011;63521;51.900;4.748;2023-06-24T00:03:09;1.85;;;1.60;;
74963;SDS011;63521;51.900;4.748;2023-06-24T00:05:37;1.80;;;1.30;;
74963;SDS011;63521;51.900;4.748;2023-06-24T00:08:04;2.42;;;1.70;;
74963;SDS011;63521;51.900;4.748;2023-06-24T00:10:32;1.73;;;1.50;;
74963;SDS011;63521;51.900;4.748;2023-06-24T00:12:58;1.90;;;1.40;;
74963;SDS011;63521;51.900;4.748;2023-06-24T00:15:26;3.08;;;1.50;;
74963;SDS011;63521;51.900;4.748;2023-06-24T00:17:52;2.30;;;1.40;;
74963;SDS011;63521;51.900;4.748;2023-06-24T00:20:17;1.50;;;1.27;;
74963;SDS011;63521;51.900;4.748;2023-06-24T00:22:45;2.40;;;1.40;;
74963;SDS011;63521;51.900;4.748;2023-06-24T00:25:14;1.60;;;1.42;;
74963;SDS011;63521;51.900;4.748;2023-06-24T00:27:40;1.67;;;1.45;;
74963;SDS011;63521;51.900;4.748;2023-06-24T00:30:07;1.77;;;1.40;;
74963;SDS011;63521;51.900;4.748;2023-06-24T00:32:33;2.05;;;1.63;;
74963;SDS011;63521;51.900;4.748;2023-06-24T00:34:58;1.58;;;1.20;;
74963;SDS011;63521;51.900;4.748;2023-06-24T00:37:25;1.30;;;1.20;;
74963;SDS011;63521;51.900;4.748;2023-06-24T00:39:50;1.92;;;1.65;;
74963;SDS011;63521;51.900;4.748;2023-06-24T00:42:16;1.50;;;1.40;;
74963;SDS011;63521;51.900;4.748;2023-06-24T00:44:42;1.38;;;1.23;;
74963;SDS011;63521;51.900;4.748;2023-06-24T00:47:07;1.70;;;1.33;;
74963;SDS011;63521;51.900;4.748;2023-06-24T00:49:33;1.38;;;1.20;;
74963;SDS011;63521;51.900;4.748;2023-06-24T00:51:59;1.55;;;1.20;;
74963;SDS011;63521;51.900;4.748;2023-06-24T00:54:26;1.80;;;1.40;;
74963;SDS011;63521;51.900;4.748;2023-06-24T00:56:56;1.83;;;1.20;;
74963;SDS011;63521;51.900;4.748;2023-06-24T00:59:22;1.60;;;1.20;;
74963;SDS011;63521;51.900;4.748;2023-06-24T01:01:48;1.60;;;1.17;;
74963;SDS011;63521;51.900;4.748;2023-06-24T01:04:14;1.83;;;1.10;;
74963;SDS011;63521;51.900;4.748;2023-06-24T01:06:41;1.70;;;1.30;;
74963;SDS011;63521;51.900;4.748;2023-06-24T01:09:08;1.90;;;1.50;;
74963;SDS011;63521;51.900;4.748;2023-06-24T01:11:34;1.33;;;1.23;;
74963;SDS011;63521;51.900;4.748;2023-06-24T01:13:59;1.50;;;1.25;;
74963;SDS011;63521;51.900;4.748;2023-06-24T01:16:41;1.20;;;1.10;;
74963;SDS011;63521;51.900;4.748;2023-06-24T01:32:42;2.30;;;1.25;;
74963;SDS011;63521;51.900;4.748;2023-06-24T01:35:19;2.42;;;1.58;;
74963;SDS011;63521;51.900;4.748;2023-06-24T01:37:55;2.42;;;1.40;;
74963;SDS011;63521;51.900;4.748;2023-06-24T01:42:56;1.73;;;1.25;;
74963;SDS011;63521;51.900;4.748;2023-06-24T01:45:25;1.70;;;1.40;;
74963;SDS011;63521;51.900;4.748;2023-06-24T01:50:33;1.90;;;1.30;;
74963;SDS011;63521;51.900;4.748;2023-06-24T01:52:58;1.75;;;1.25;;
74963;SDS011;63521;51.900;4.748;2023-06-24T01:55:26;1.63;;;1.30;;
74963;SDS011;63521;51.900;4.748;2023-06-24T01:57:53;2.03;;;1.40;;
74963;SDS011;63521;51.900;4.748;2023-06-24T02:00:20;1.80;;;1.30;;
74963;SDS011;63521;51.900;4.748;2023-06-24T02:02:46;2.47;;;1.40;;
74963;SDS011;63521;51.900;4.748;2023-06-24T02:05:12;1.52;;;1.08;;
74963;SDS011;63521;51.900;4.748;2023-06-24T02:07:39;2.35;;;1.38;;
74963;SDS011;63521;51.900;4.748;2023-06-24T02:10:05;2.05;;;1.40;;
74963;SDS011;63521;51.900;4.748;2023-06-24T02:12:32;1.30;;;1.20;;
74963;SDS011;63521;51.900;4.748;2023-06-24T02:14:57;1.67;;;1.30;;
74963;SDS011;63521;51.900;4.748;2023-06-24T02:17:25;1.98;;;1.40;;
74963;SDS011;63521;51.900;4.748;2023-06-24T02:19:54;1.52;;;1.30;;
74963;SDS011;63521;51.900;4.748;2023-06-24T02:22:20;1.90;;;1.30;;
74963;SDS011;63521;51.900;4.748;2023-06-24T02:24:46;1.25;;;1.15;;
74963;SDS011;63521;51.900;4.748;2023-06-24T02:27:14;2.42;;;1.48;;
74963;SDS011;63521;51.900;4.748;2023-06-24T02:29:39;1.92;;;1.38;;
74963;SDS011;63521;51.900;4.748;2023-06-24T02:32:05;1.50;;;1.27;;
74963;SDS011;63521;51.900;4.748;2023-06-24T02:34:31;1.60;;;1.23;;
74963;SDS011;63521;51.900;4.748;2023-06-24T02:36:57;1.80;;;1.40;;
74963;SDS011;63521;51.900;4.748;2023-06-24T02:39:22;1.70;;;1.40;;
74963;SDS011;63521;51.900;4.748;2023-06-24T02:41:48;2.47;;;1.45;;
74963;SDS011;63521;51.900;4.748;2023-06-24T02:44:14;1.63;;;1.23;;
74963;SDS011;63521;51.900;4.748;2023-06-24T02:46:40;2.10;;;1.40;;
74963;SDS011;63521;51.900;4.748;2023-06-24T02:49:07;1.48;;;1.30;;
74963;SDS011;63521;51.900;4.748;2023-06-24T02:51:34;2.13;;;1.23;;
74963;SDS011;63521;51.900;4.748;2023-06-24T02:54:00;1.98;;;1.50;;
74963;SDS011;63521;51.900;4.748;2023-06-24T02:56:26;2.78;;;1.60;;
74963;SDS011;63521;51.900;4.748;2023-06-24T02:58:53;1.67;;;1.20;;
74963;SDS011;63521;51.900;4.748;2023-06-24T03:01:19;2.30;;;1.30;;
74963;SDS011;63521;51.900;4.748;2023-06-24T03:03:50;1.85;;;1.38;;
74963;SDS011;63521;51.900;4.748;2023-06-24T03:06:18;1.33;;;1.10;;
74963;SDS011;63521;51.900;4.748;2023-06-24T03:08:44;1.77;;;1.23;;
74963;SDS011;63521;51.900;4.748;2023-06-24T03:11:12;2.47;;;1.67;;
74963;SDS011;63521;51.900;4.748;2023-06-24T03:13:38;2.00;;;1.20;;
74963;SDS011;63521;51.900;4.748;2023-06-24T03:16:04;2.47;;;1.33;;
74963;SDS011;63521;51.900;4.748;2023-06-24T03:18:29;2.22;;;1.52;;
74963;SDS011;63521;51.900;4.748;2023-06-24T03:20:55;1.67;;;1.05;;
74963;SDS011;63521;51.900;4.748;2023-06-24T03:23:20;1.42;;;1.15;;
74963;SDS011;63521;51.900;4.748;2023-06-24T03:25:46;1.58;;;1.17;;
74963;SDS011;63521;51.900;4.748;2023-06-24T03:28:11;1.15;;;1.05;;
74963;SDS011;63521;51.900;4.748;2023-06-24T03:30:36;1.90;;;1.40;;
74963;SDS011;63521;51.900;4.748;2023-06-24T03:33:02;1.88;;;1.30;;
74963;SDS011;63521;51.900;4.748;2023-06-24T03:35:27;2.30;;;1.30;;
74963;SDS011;63521;51.900;4.748;2023-06-24T03:37:53;1.95;;;1.38;;
74963;SDS011;63521;51.900;4.748;2023-06-24T03:40:18;1.90;;;1.30;;
74963;SDS011;63521;51.900;4.748;2023-06-24T03:42:44;1.40;;;1.10;;
74963;SDS011;63521;51.900;4.748;2023-06-24T03:45:09;1.33;;;1.23;;
74963;SDS011;63521;51.900;4.748;2023-06-24T03:47:35;2.13;;;1.10;;
74963;SDS011;63521;51.900;4.748;2023-06-24T03:50:00;2.08;;;1.20;;
74963;SDS011;63521;51.900;4.748;2023-06-24T03:52:26;1.88;;;1.20;;
74963;SDS011;63521;51.900;4.748;2023-06-24T03:54:51;1.27;;;0.98;;
74963;SDS011;63521;51.900;4.748;2023-06-24T03:57:17;2.03;;;1.20;;
74963;SDS011;63521;51.900;4.748;2023-06-24T03:59:43;2.53;;;1.30;;
74963;SDS011;63521;51.900;4.748;2023-06-24T04:02:09;1.42;;;1.23;;
74963;SDS011;63521;51.900;4.748;2023-06-24T04:04:34;1.60;;;1.23;;
74963;SDS011;63521;51.900;4.748;2023-06-24T04:07:00;1.67;;;1.30;;
74963;SDS011;63521;51.900;4.748;2023-06-24T04:09:26;1.58;;;1.20;;
74963;SDS011;63521;51.900;4.748;2023-06-24T04:11:51;2.28;;;1.30;;
74963;SDS011;63521;51.900;4.748;2023-06-24T04:14:17;1.38;;;1.20;;
74963;SDS011;63521;51.900;4.748;2023-06-24T04:16:42;1.67;;;1.30;;
74963;SDS011;63521;51.900;4.748;2023-06-24T04:19:08;1.58;;;1.10;;
74963;SDS011;63521;51.900;4.748;2023-06-24T04:21:33;2.67;;;1.33;;
74963;SDS011;63521;51.900;4.748;2023-06-24T04:23:59;1.85;;;1.23;;
74963;SDS011;63521;51.900;4.748;2023-06-24T04:26:30;2.22;;;1.35;;
74963;SDS011;63521;51.900;4.748;2023-06-24T04:29:13;1.77;;;1.20;;
74963;SDS011;63521;51.900;4.748;2023-06-24T04:31:44;2.88;;;1.77;;
74963;SDS011;63521;51.900;4.748;2023-06-24T04:34:18;1.63;;;1.42;;
74963;SDS011;63521;51.900;4.748;2023-06-24T04:37:02;2.13;;;1.20;;
74963;SDS011;63521;51.900;4.748;2023-06-24T04:39:38;1.90;;;1.20;;
74963;SDS011;63521;51.900;4.748;2023-06-24T04:42:10;1.23;;;1.02;;
74963;SDS011;63521;51.900;4.748;2023-06-24T04:44:46;1.20;;;1.10;;
74963;SDS011;63521;51.900;4.748;2023-06-24T04:47:18;2.05;;;1.30;;
74963;SDS011;63521;51.900;4.748;2023-06-24T04:50:02;1.35;;;1.08;;
74963;SDS011;63521;51.900;4.748;2023-06-24T04:52:36;1.63;;;1.23;;
74963;SDS011;63521;51.900;4.748;2023-06-24T04:55:02;1.40;;;1.20;;
74963;SDS011;63521;51.900;4.748;2023-06-24T05:00:13;1.55;;;1.05;;
74963;SDS011;63521;51.900;4.748;2023-06-24T05:02:44;1.50;;;1.10;;
74963;SDS011;63521;51.900;4.748;2023-06-24T05:05:10;1.52;;;1.25;;
74963;SDS011;63521;51.900;4.748;2023-06-24T05:07:46;1.70;;;1.20;;
74963;SDS011;63521;51.900;4.748;2023-06-24T05:10:19;1.85;;;1.13;;
74963;SDS011;63521;51.900;4.748;2023-06-24T05:12:47;1.70;;;1.40;;
74963;SDS011;63521;51.900;4.748;2023-06-24T05:15:21;1.15;;;1.00;;
74963;SDS011;63521;51.900;4.748;2023-06-24T05:17:47;1.35;;;1.10;;
74963;SDS011;63521;51.900;4.748;2023-06-24T05:20:15;1.58;;;1.20;;
74963;SDS011;63521;51.900;4.748;2023-06-24T05:22:43;1.88;;;1.38;;
74963;SDS011;63521;51.900;4.748;2023-06-24T05:25:11;1.27;;;1.08;;
74963;SDS011;63521;51.900;4.748;2023-06-24T05:27:37;1.88;;;0.88;;
74963;SDS011;63521;51.900;4.748;2023-06-24T05:30:02;1.60;;;1.35;;
74963;SDS011;63521;51.900;4.748;2023-06-24T05:32:28;1.55;;;1.20;;
74963;SDS011;63521;51.900;4.748;2023-06-24T05:34:54;1.70;;;1.13;;
74963;SDS011;63521;51.900;4.748;2023-06-24T05:37:19;1.67;;;1.13;;
74963;SDS011;63521;51.900;4.748;2023-06-24T05:39:45;2.42;;;1.35;;
74963;SDS011;63521;51.900;4.748;2023-06-24T05:42:10;1.40;;;1.10;;
74963;SDS011;63521;51.900;4.748;2023-06-24T05:44:35;2.53;;;1.52;;
74963;SDS011;63521;51.900;4.748;2023-06-24T05:47:01;1.60;;;1.10;;
74963;SDS011;63521;51.900;4.748;2023-06-24T05:49:26;2.60;;;1.40;;
74963;SDS011;63521;51.900;4.748;2023-06-24T05:51:52;1.60;;;1.10;;
74963;SDS011;63521;51.900;4.748;2023-06-24T05:54:17;1.35;;;1.17;;
74963;SDS011;63521;51.900;4.748;2023-06-24T05:56:42;1.98;;;1.13;;
74963;SDS011;63521;51.900;4.748;2023-06-24T05:59:08;1.77;;;1.38;;
74963;SDS011;63521;51.900;4.748;2023-06-24T06:01:33;2.75;;;1.30;;
74963;SDS011;63521;51.900;4.748;2023-06-24T06:03:59;1.92;;;1.20;;
74963;SDS011;63521;51.900;4.748;2023-06-24T06:06:31;2.35;;;1.30;;
74963;SDS011;63521;51.900;4.748;2023-06-24T06:08:56;1.63;;;1.20;;
74963;SDS011;63521;51.900;4.748;2023-06-24T06:11:22;2.15;;;1.45;;
74963;SDS011;63521;51.900;4.748;2023-06-24T06:13:47;1.67;;;1.45;;
74963;SDS011;63521;51.900;4.748;2023-06-24T06:16:13;2.05;;;1.40;;
74963;SDS011;63521;51.900;4.748;2023-06-24T06:18:38;1.98;;;1.30;;
74963;SDS011;63521;51.900;4.748;2023-06-24T06:21:04;2.50;;;1.50;;
74963;SDS011;63521;51.900;4.748;2023-06-24T06:23:29;3.17;;;1.45;;
74963;SDS011;63521;51.900;4.748;2023-06-24T06:25:55;1.80;;;1.27;;
74963;SDS011;63521;51.900;4.748;2023-06-24T06:28:20;1.42;;;1.08;;
74963;SDS011;63521;51.900;4.748;2023-06-24T06:30:46;2.47;;;1.55;;
74963;SDS011;63521;51.900;4.748;2023-06-24T06:33:11;1.73;;;1.23;;
74963;SDS011;63521;51.900;4.748;2023-06-24T06:35:36;1.52;;;1.40;;
74963;SDS011;63521;51.900;4.748;2023-06-24T06:38:02;1.95;;;1.23;;
74963;SDS011;63521;51.900;4.748;2023-06-24T06:40:27;2.38;;;1.35;;
74963;SDS011;63521;51.900;4.748;2023-06-24T06:42:53;2.20;;;1.52;;
74963;SDS011;63521;51.900;4.748;2023-06-24T06:47:49;1.58;;;1.23;;
74963;SDS011;63521;51.900;4.748;2023-06-24T06:50:15;1.75;;;1.40;;
74963;SDS011;63521;51.900;4.748;2023-06-24T06:52:50;1.98;;;1.50;;
74963;SDS011;63521;51.900;4.748;2023-06-24T06:55:19;2.47;;;1.50;;
74963;SDS011;63521;51.900;4.748;2023-06-24T06:57:46;2.03;;;1.63;;
74963;SDS011;63521;51.900;4.748;2023-06-24T07:06:45;2.00;;;1.33;;
74963;SDS011;63521;51.900;4.748;2023-06-24T07:09:20;1.65;;;1.33;;
74963;SDS011;63521;51.900;4.748;2023-06-24T07:14:38;2.13;;;1.70;;
74963;SDS011;63521;51.900;4.748;2023-06-24T07:17:41;1.48;;;1.38;;
74963;SDS011;63521;51.900;4.748;2023-06-24T07:20:09;2.72;;;1.42;;
74963;SDS011;63521;51.900;4.748;2023-06-24T07:25:54;2.03;;;1.80;;
74963;SDS011;63521;51.900;4.748;2023-06-24T07:28:26;2.75;;;1.60;;
74963;SDS011;63521;51.900;4.748;2023-06-24T07:31:17;2.40;;;1.55;;
74963;SDS011;63521;51.900;4.748;2023-06-24T07:33:48;2.38;;;1.80;;
74963;SDS011;63521;51.900;4.748;2023-06-24T07:36:27;2.92;;;1.80;;
74963;SDS011;63521;51.900;4.748;2023-06-24T07:39:07;2.45;;;1.77;;
74963;SDS011;63521;51.900;4.748;2023-06-24T07:41:47;3.05;;;2.10;;
74963;SDS011;63521;51.900;4.748;2023-06-24T07:44:26;2.75;;;1.60;;
74963;SDS011;63521;51.900;4.748;2023-06-24T07:46:54;2.58;;;1.73;;
74963;SDS011;63521;51.900;4.748;2023-06-24T07:49:33;2.72;;;2.05;;
74963;SDS011;63521;51.900;4.748;2023-06-24T07:52:02;2.67;;;1.75;;
74963;SDS011;63521;51.900;4.748;2023-06-24T07:54:38;2.58;;;1.63;;
74963;SDS011;63521;51.900;4.748;2023-06-24T08:00:14;2.50;;;1.70;;
74963;SDS011;63521;51.900;4.748;2023-06-24T08:02:47;3.33;;;1.92;;
74963;SDS011;63521;51.900;4.748;2023-06-24T08:05:18;2.75;;;1.75;;
74963;SDS011;63521;51.900;4.748;2023-06-24T08:08:15;2.65;;;2.25;;
74963;SDS011;63521;51.900;4.748;2023-06-24T08:10:48;2.92;;;2.00;;
74963;SDS011;63521;51.900;4.748;2023-06-24T08:13:34;3.22;;;1.75;;
74963;SDS011;63521;51.900;4.748;2023-06-24T08:16:03;2.20;;;1.90;;
74963;SDS011;63521;51.900;4.748;2023-06-24T08:18:59;2.50;;;1.90;;
74963;SDS011;63521;51.900;4.748;2023-06-24T08:21:27;3.58;;;1.95;;
74963;SDS011;63521;51.900;4.748;2023-06-24T08:24:08;2.13;;;1.83;;
74963;SDS011;63521;51.900;4.748;2023-06-24T08:26:39;1.98;;;1.77;;
74963;SDS011;63521;51.900;4.748;2023-06-24T08:29:07;2.30;;;2.10;;
74963;SDS011;63521;51.900;4.748;2023-06-24T08:31:40;2.05;;;1.85;;
74963;SDS011;63521;51.900;4.748;2023-06-24T08:34:06;2.00;;;1.80;;
74963;SDS011;63521;51.900;4.748;2023-06-24T08:36:55;2.20;;;1.85;;
74963;SDS011;63521;51.900;4.748;2023-06-24T08:39:26;2.20;;;2.00;;
74963;SDS011;63521;51.900;4.748;2023-06-24T08:41:56;2.53;;;1.98;;
74963;SDS011;63521;51.900;4.748;2023-06-24T08:44:27;2.83;;;2.03;;
74963;SDS011;63521;51.900;4.748;2023-06-24T08:50:46;2.60;;;2.00;;
74963;SDS011;63521;51.900;4.748;2023-06-24T08:53:18;2.17;;;1.92;;
74963;SDS011;63521;51.900;4.748;2023-06-24T08:55:47;2.47;;;2.03;;
74963;SDS011;63521;51.900;4.748;2023-06-24T08:58:29;2.45;;;2.00;;
74963;SDS011;63521;51.900;4.748;2023-06-24T09:00:54;2.90;;;2.35;;
74963;SDS011;63521;51.900;4.748;2023-06-24T09:03:23;2.05;;;1.90;;
74963;SDS011;63521;51.900;4.748;2023-06-24T09:05:52;2.30;;;2.10;;
74963;SDS011;63521;51.900;4.748;2023-06-24T09:08:20;2.40;;;2.10;;
74963;SDS011;63521;51.900;4.748;2023-06-24T09:10:47;2.53;;;2.15;;
74963;SDS011;63521;51.900;4.748;2023-06-24T09:13:21;2.60;;;2.10;;
74963;SDS011;63521;51.900;4.748;2023-06-24T09:15:58;2.30;;;2.08;;
74963;SDS011;63521;51.900;4.748;2023-06-24T09:18:30;2.30;;;2.03;;
74963;SDS011;63521;51.900;4.748;2023-06-24T09:21:13;2.47;;;2.17;;
74963;SDS011;63521;51.900;4.748;2023-06-24T09:23:43;2.20;;;2.00;;
74963;SDS011;63521;51.900;4.748;2023-06-24T09:26:11;2.90;;;2.10;;
74963;SDS011;63521;51.900;4.748;2023-06-24T09:28:49;2.30;;;2.00;;
74963;SDS011;63521;51.900;4.748;2023-06-24T09:34:24;2.78;;;2.30;;
74963;SDS011;63521;51.900;4.748;2023-06-24T09:36:53;3.65;;;2.78;;
74963;SDS011;63521;51.900;4.748;2023-06-24T09:39:25;3.45;;;2.10;;
74963;SDS011;63521;51.900;4.748;2023-06-24T09:42:01;2.53;;;2.33;;
74963;SDS011;63521;51.900;4.748;2023-06-24T09:44:34;2.33;;;2.13;;
74963;SDS011;63521;51.900;4.748;2023-06-24T09:47:00;2.47;;;2.17;;
74963;SDS011;63521;51.900;4.748;2023-06-24T09:49:25;3.13;;;2.60;;
74963;SDS011;63521;51.900;4.748;2023-06-24T09:51:55;2.80;;;2.50;;
74963;SDS011;63521;51.900;4.748;2023-06-24T09:54:36;3.50;;;2.50;;
74963;SDS011;63521;51.900;4.748;2023-06-24T09:57:09;2.25;;;2.05;;
74963;SDS011;63521;51.900;4.748;2023-06-24T09:59:59;2.95;;;2.75;;
74963;SDS011;63521;51.900;4.748;2023-06-24T10:02:28;2.95;;;2.50;;
74963;SDS011;63521;51.900;4.748;2023-06-24T10:07:25;2.92;;;2.53;;
74963;SDS011;63521;51.900;4.748;2023-06-24T10:09:52;2.63;;;2.42;;
74963;SDS011;63521;51.900;4.748;2023-06-24T10:12:18;3.10;;;2.50;;
74963;SDS011;63521;51.900;4.748;2023-06-24T10:14:49;3.78;;;2.40;;
74963;SDS011;63521;51.900;4.748;2023-06-24T10:17:15;4.20;;;2.85;;
74963;SDS011;63521;51.900;4.748;2023-06-24T10:19:40;3.33;;;3.03;;
74963;SDS011;63521;51.900;4.748;2023-06-24T10:22:07;3.97;;;2.67;;
74963;SDS011;63521;51.900;4.748;2023-06-24T10:24:39;3.53;;;2.88;;
74963;SDS011;63521;51.900;4.748;2023-06-24T10:27:24;5.28;;;2.58;;
74963;SDS011;63521;51.900;4.748;2023-06-24T10:30:01;3.42;;;2.30;;
74963;SDS011;63521;51.900;4.748;2023-06-24T10:32:38;3.15;;;2.72;;
74963;SDS011;63521;51.900;4.748;2023-06-24T10:35:05;3.10;;;2.80;;
74963;SDS011;63521;51.900;4.748;2023-06-24T10:37:32;3.08;;;2.67;;
74963;SDS011;63521;51.900;4.748;2023-06-24T10:40:05;3.05;;;2.75;;
74963;SDS011;63521;51.900;4.748;2023-06-24T10:42:43;3.15;;;2.85;;
74963;SDS011;63521;51.900;4.748;2023-06-24T10:45:32;2.90;;;2.50;;
74963;SDS011;63521;51.900;4.748;2023-06-24T10:48:43;3.83;;;3.10;;
74963;SDS011;63521;51.900;4.748;2023-06-24T10:51:12;3.00;;;2.70;;
74963;SDS011;63521;51.900;4.748;2023-06-24T10:53:39;4.03;;;3.17;;
74963;SDS011;63521;51.900;4.748;2023-06-24T10:56:10;3.58;;;2.90;;
74963;SDS011;63521;51.900;4.748;2023-06-24T10:58:54;3.28;;;2.50;;
74963;SDS011;63521;51.900;4.748;2023-06-24T11:01:20;3.95;;;2.97;;
74963;SDS011;63521;51.900;4.748;2023-06-24T11:03:45;3.45;;;2.63;;
74963;SDS011;63521;51.900;4.748;2023-06-24T11:06:13;3.60;;;2.92;;
74963;SDS011;63521;51.900;4.748;2023-06-24T11:08:45;3.78;;;3.38;;
74963;SDS011;63521;51.900;4.748;2023-06-24T11:11:18;3.20;;;2.83;;
74963;SDS011;63521;51.900;4.748;2023-06-24T11:13:51;3.13;;;2.83;;
74963;SDS011;63521;51.900;4.748;2023-06-24T11:16:21;2.97;;;2.67;;
74963;SDS011;63521;51.900;4.748;2023-06-24T11:18:50;2.97;;;2.78;;
74963;SDS011;63521;51.900;4.748;2023-06-24T11:21:18;4.70;;;3.03;;
74963;SDS011;63521;51.900;4.748;2023-06-24T11:23:43;3.13;;;2.83;;
74963;SDS011;63521;51.900;4.748;2023-06-24T11:26:09;3.00;;;2.80;;
74963;SDS011;63521;51.900;4.748;2023-06-24T11:28:37;3.28;;;2.97;;
74963;SDS011;63521;51.900;4.748;2023-06-24T11:31:08;3.50;;;3.20;;
74963;SDS011;63521;51.900;4.748;2023-06-24T11:33:41;3.42;;;3.03;;
74963;SDS011;63521;51.900;4.748;2023-06-24T11:36:09;3.58;;;3.28;;
74963;SDS011;63521;51.900;4.748;2023-06-24T11:38:37;3.25;;;2.95;;
74963;SDS011;63521;51.900;4.748;2023-06-24T11:41:12;3.28;;;2.70;;
74963;SDS011;63521;51.900;4.748;2023-06-24T11:43:43;3.95;;;3.10;;
74963;SDS011;63521;51.900;4.748;2023-06-24T11:46:25;4.00;;;3.50;;
74963;SDS011;63521;51.900;4.748;2023-06-24T11:49:05;4.22;;;3.15;;
74963;SDS011;63521;51.900;4.748;2023-06-24T11:51:36;4.13;;;3.15;;
74963;SDS011;63521;51.900;4.748;2023-06-24T11:54:07;4.93;;;3.40;;
74963;SDS011;63521;51.900;4.748;2023-06-24T11:56:39;4.55;;;3.20;;
74963;SDS011;63521;51.900;4.748;2023-06-24T12:02:14;3.13;;;2.63;;
74963;SDS011;63521;51.900;4.748;2023-06-24T12:04:47;4.15;;;3.47;;
74963;SDS011;63521;51.900;4.748;2023-06-24T12:07:13;3.45;;;3.15;;
74963;SDS011;63521;51.900;4.748;2023-06-24T12:09:38;3.55;;;2.92;;
74963;SDS011;63521;51.900;4.748;2023-06-24T12:12:04;3.90;;;3.25;;
74963;SDS011;63521;51.900;4.748;2023-06-24T12:14:29;3.10;;;2.72;;
74963;SDS011;63521;51.900;4.748;2023-06-24T12:16:55;4.55;;;3.30;;
74963;SDS011;63521;51.900;4.748;2023-06-24T12:19:20;3.75;;;3.28;;
74963;SDS011;63521;51.900;4.748;2023-06-24T12:21:47;3.30;;;3.00;;
74963;SDS011;63521;51.900;4.748;2023-06-24T12:24:12;3.60;;;3.28;;
74963;SDS011;63521;51.900;4.748;2023-06-24T12:26:38;3.22;;;2.92;;
74963;SDS011;63521;51.900;4.748;2023-06-24T12:29:07;2.97;;;2.67;;
74963;SDS011;63521;51.900;4.748;2023-06-24T12:31:32;3.30;;;3.00;;
74963;SDS011;63521;51.900;4.748;2023-06-24T12:33:58;3.40;;;2.78;;
74963;SDS011;63521;51.900;4.748;2023-06-24T12:36:23;3.53;;;3.22;;
74963;SDS011;63521;51.900;4.748;2023-06-24T12:38:51;3.55;;;3.25;;
74963;SDS011;63521;51.900;4.748;2023-06-24T12:41:19;2.90;;;2.60;;
74963;SDS011;63521;51.900;4.748;2023-06-24T12:43:44;4.18;;;2.92;;
74963;SDS011;63521;51.900;4.748;2023-06-24T12:46:10;3.55;;;3.25;;
74963;SDS011;63521;51.900;4.748;2023-06-24T12:48:35;4.28;;;3.22;;
74963;SDS011;63521;51.900;4.748;2023-06-24T12:51:06;3.20;;;2.78;;
74963;SDS011;63521;51.900;4.748;2023-06-24T12:53:35;3.03;;;2.72;;
74963;SDS011;63521;51.900;4.748;2023-06-24T12:56:03;3.72;;;3.42;;
74963;SDS011;63521;51.900;4.748;2023-06-24T12:58:31;3.22;;;2.92;;
74963;SDS011;63521;51.900;4.748;2023-06-24T13:00:57;4.95;;;3.63;;
74963;SDS011;63521;51.900;4.748;2023-06-24T13:03:27;3.63;;;3.22;;
74963;SDS011;63521;51.900;4.748;2023-06-24T13:05:53;3.97;;;3.05;;
74963;SDS011;63521;51.900;4.748;2023-06-24T13:08:18;3.60;;;3.13;;
74963;SDS011;63521;51.900;4.748;2023-06-24T13:10:44;4.18;;;3.45;;
74963;SDS011;63521;51.900;4.748;2023-06-24T13:13:09;3.92;;;3.53;;
74963;SDS011;63521;51.900;4.748;2023-06-24T13:15:35;3.63;;;3.13;;
74963;SDS011;63521;51.900;4.748;2023-06-24T13:18:01;4.40;;;3.63;;
74963;SDS011;63521;51.900;4.748;2023-06-24T13:20:26;4.10;;;3.28;;
74963;SDS011;63521;51.900;4.748;2023-06-24T13:22:52;3.95;;;3.03;;
74963;SDS011;63521;51.900;4.748;2023-06-24T13:25:17;4.60;;;4.13;;
74963;SDS011;63521;51.900;4.748;2023-06-24T13:27:45;3.65;;;3.20;;
74963;SDS011;63521;51.900;4.748;2023-06-24T13:30:11;3.92;;;3.47;;
74963;SDS011;63521;51.900;4.748;2023-06-24T13:32:40;3.47;;;2.97;;
74963;SDS011;63521;51.900;4.748;2023-06-24T13:35:05;3.53;;;3.05;;
74963;SDS011;63521;51.900;4.748;2023-06-24T13:37:31;3.38;;;2.88;;
74963;SDS011;63521;51.900;4.748;2023-06-24T13:39:56;3.47;;;3.17;;
74963;SDS011;63521;51.900;4.748;2023-06-24T13:42:22;3.65;;;3.13;;
74963;SDS011;63521;51.900;4.748;2023-06-24T13:44:47;4.30;;;3.05;;
74963;SDS011;63521;51.900;4.748;2023-06-24T13:47:13;4.05;;;3.33;;
74963;SDS011;63521;51.900;4.748;2023-06-24T13:49:40;4.00;;;3.00;;
74963;SDS011;63521;51.900;4.748;2023-06-24T13:52:15;3.75;;;3.05;;
74963;SDS011;63521;51.900;4.748;2023-06-24T13:54:43;3.65;;;2.97;;
74963;SDS011;63521;51.900;4.748;2023-06-24T13:57:08;4.20;;;2.97;;
74963;SDS011;63521;51.900;4.748;2023-06-24T13:59:34;4.03;;;3.45;;
74963;SDS011;63521;51.900;4.748;2023-06-24T14:01:59;4.07;;;3.40;;
74963;SDS011;63521;51.900;4.748;2023-06-24T14:04:25;3.58;;;3.05;;
74963;SDS011;63521;51.900;4.748;2023-06-24T14:06:50;3.67;;;3.20;;
74963;SDS011;63521;51.900;4.748;2023-06-24T14:09:16;4.68;;;3.38;;
74963;SDS011;63521;51.900;4.748;2023-06-24T14:11:41;3.20;;;2.90;;
74963;SDS011;63521;51.900;4.748;2023-06-24T14:14:07;3.88;;;3.47;;
74963;SDS011;63521;51.900;4.748;2023-06-24T14:16:32;3.28;;;2.80;;
74963;SDS011;63521;51.900;4.748;2023-06-24T14:18:58;3.95;;;3.25;;
74963;SDS011;63521;51.900;4.748;2023-06-24T14:21:23;3.88;;;3.40;;
74963;SDS011;63521;51.900;4.748;2023-06-24T14:24:04;3.92;;;3.20;;
74963;SDS011;63521;51.900;4.748;2023-06-24T14:26:31;4.25;;;3.00;;
74963;SDS011;63521;51.900;4.748;2023-06-24T14:28:57;4.47;;;3.15;;
74963;SDS011;63521;51.900;4.748;2023-06-24T14:31:22;4.00;;;3.10;;
74963;SDS011;63521;51.900;4.748;2023-06-24T14:33:48;4.07;;;3.30;;
74963;SDS011;63521;51.900;4.748;2023-06-24T14:36:13;3.60;;;2.88;;
74963;SDS011;63521;51.900;4.748;2023-06-24T14:38:38;3.47;;;3.08;;
74963;SDS011;63521;51.900;4.748;2023-06-24T14:41:04;3.25;;;2.80;;
74963;SDS011;63521;51.900;4.748;2023-06-24T14:43:32;3.53;;;2.90;;
74963;SDS011;63521;51.900;4.748;2023-06-24T14:45:58;4.03;;;3.15;;
74963;SDS011;63521;51.900;4.748;2023-06-24T14:48:23;3.88;;;2.97;;
74963;SDS011;63521;51.900;4.748;2023-06-24T14:50:48;3.22;;;2.90;;
74963;SDS011;63521;51.900;4.748;2023-06-24T14:53:14;3.63;;;3.30;;
74963;SDS011;63521;51.900;4.748;2023-06-24T14:55:39;3.65;;;3.22;;
74963;SDS011;63521;51.900;4.748;2023-06-24T14:58:05;3.15;;;2.75;;
74963;SDS011;63521;51.900;4.748;2023-06-24T15:00:30;3.45;;;2.88;;
74963;SDS011;63521;51.900;4.748;2023-06-24T15:02:55;4.32;;;3.50;;
74963;SDS011;63521;51.900;4.748;2023-06-24T15:05:21;4.10;;;3.50;;
74963;SDS011;63521;51.900;4.748;2023-06-24T15:07:46;4.00;;;2.97;;
74963;SDS011;63521;51.900;4.748;2023-06-24T15:10:12;2.55;;;2.35;;
74963;SDS011;63521;51.900;4.748;2023-06-24T15:12:37;3.30;;;2.70;;
74963;SDS011;63521;51.900;4.748;2023-06-24T15:15:03;4.00;;;3.20;;
74963;SDS011;63521;51.900;4.748;2023-06-24T15:17:29;5.00;;;4.05;;
74963;SDS011;63521;51.900;4.748;2023-06-24T15:19:55;4.00;;;3.50;;
74963;SDS011;63521;51.900;4.748;2023-06-24T15:22:21;4.65;;;3.42;;
74963;SDS011;63521;51.900;4.748;2023-06-24T15:24:46;5.70;;;3.33;;
74963;SDS011;63521;51.900;4.748;2023-06-24T15:27:11;5.03;;;3.63;;
74963;SDS011;63521;51.900;4.748;2023-06-24T15:29:37;5.32;;;3.53;;
74963;SDS011;63521;51.900;4.748;2023-06-24T15:32:02;4.97;;;3.40;;
74963;SDS011;63521;51.900;4.748;2023-06-24T15:34:28;5.18;;;3.55;;
74963;SDS011;63521;51.900;4.748;2023-06-24T15:36:53;4.43;;;3.88;;
74963;SDS011;63521;51.900;4.748;2023-06-24T15:39:19;4.90;;;3.60;;
74963;SDS011;63521;51.900;4.748;2023-06-24T15:41:46;4.72;;;3.60;;
74963;SDS011;63521;51.900;4.748;2023-06-24T15:44:12;3.42;;;3.13;;
74963;SDS011;63521;51.900;4.748;2023-06-24T15:46:37;4.85;;;3.15;;
74963;SDS011;63521;51.900;4.748;2023-06-24T15:49:03;4.65;;;3.10;;